createdAt,value
2023-05-21T00:00:17.613Z,12.57
2023-05-21T00:02:44.298Z,12.19
2023-05-21T00:05:13.683Z,12.01
2023-05-21T00:07:41.242Z,12.16
2023-05-21T00:10:07.862Z,11.96
2023-05-21T00:12:34.440Z,11.86
2023-05-21T00:15:01.044Z,11.74
2023-05-21T00:17:27.676Z,11.51
2023-05-21T00:19:54.311Z,11.90
2023-05-21T00:22:20.888Z,11.85
2023-05-21T00:24:47.462Z,12.29
2023-05-21T00:27:13.989Z,11.67
2023-05-21T00:29:41.348Z,11.73
2023-05-21T00:32:09.514Z,11.91
2023-05-21T00:34:36.140Z,11.94
2023-05-21T00:37:02.698Z,11.34
2023-05-21T00:39:29.239Z,11.64
2023-05-21T00:41:55.764Z,11.92
2023-05-21T00:44:22.359Z,11.96
2023-05-21T00:46:48.975Z,11.46
2023-05-21T00:49:15.529Z,11.63
2023-05-21T00:51:42.110Z,11.35
2023-05-21T00:54:08.633Z,11.68
2023-05-21T00:56:35.206Z,11.68
2023-05-21T00:59:01.833Z,11.18
2023-05-21T01:01:28.400Z,11.46
2023-05-21T01:03:55.026Z,11.13
2023-05-21T01:06:21.580Z,10.89
2023-05-21T01:08:48.096Z,11.30
2023-05-21T01:11:14.603Z,11.40
2023-05-21T01:13:41.055Z,11.11
2023-05-21T01:16:07.568Z,10.89
2023-05-21T01:18:34.042Z,11.29
2023-05-21T01:21:00.479Z,11.36
2023-05-21T01:23:26.993Z,11.75
2023-05-21T01:25:53.533Z,11.02
2023-05-21T01:28:20.089Z,11.13
2023-05-21T01:30:46.615Z,10.75
2023-05-21T01:33:13.516Z,11.24
2023-05-21T01:35:40.541Z,11.02
2023-05-21T01:38:07.093Z,10.81
2023-05-21T01:40:33.659Z,10.74
2023-05-21T01:43:00.276Z,11.20
2023-05-21T01:45:26.792Z,11.08
2023-05-21T01:47:53.317Z,10.55
2023-05-21T01:50:19.846Z,10.86
2023-05-21T01:52:46.311Z,11.06
2023-05-21T01:55:12.865Z,10.92
2023-05-21T01:57:39.379Z,11.02
2023-05-21T02:00:05.973Z,11.05
2023-05-21T02:02:32.559Z,10.47
2023-05-21T02:04:59.112Z,10.67
2023-05-21T02:07:25.624Z,10.67
2023-05-21T02:09:52.132Z,10.55
2023-05-21T02:12:18.681Z,10.45
2023-05-21T02:14:45.199Z,10.58
2023-05-21T02:17:11.730Z,10.72
2023-05-21T02:19:38.238Z,9.73
2023-05-21T02:22:04.819Z,10.19
2023-05-21T02:24:31.411Z,10.49
2023-05-21T02:26:57.998Z,10.68
2023-05-21T02:29:24.572Z,10.50
2023-05-21T02:31:51.099Z,10.26
2023-05-21T02:34:17.972Z,10.12
2023-05-21T02:36:44.597Z,10.29
2023-05-21T02:39:11.144Z,10.29
2023-05-21T02:41:37.708Z,10.28
2023-05-21T02:44:04.311Z,10.09
2023-05-21T02:46:30.960Z,10.05
2023-05-21T02:48:57.568Z,10.49
2023-05-21T02:51:24.140Z,10.00
2023-05-21T02:53:50.717Z,9.78
2023-05-21T02:56:20.393Z,10.39
2023-05-21T02:58:47.007Z,10.19
2023-05-21T03:01:13.575Z,10.27
2023-05-21T03:03:40.199Z,9.86
2023-05-21T03:06:06.709Z,9.96
2023-05-21T03:08:33.197Z,10.12
2023-05-21T03:10:59.706Z,9.52
2023-05-21T03:13:26.288Z,9.94
2023-05-21T03:15:52.835Z,9.50
2023-05-21T03:18:19.363Z,9.87
2023-05-21T03:20:45.942Z,10.08
2023-05-21T03:23:14.223Z,9.71
2023-05-21T03:25:42.833Z,9.74
2023-05-21T03:28:09.397Z,9.88
2023-05-21T03:30:36.007Z,9.80
2023-05-21T03:33:02.617Z,9.66
2023-05-21T03:35:29.214Z,9.84
2023-05-21T03:37:55.741Z,9.64
2023-05-21T03:40:22.198Z,9.54
2023-05-21T03:42:48.689Z,9.56
2023-05-21T03:45:15.212Z,9.68
2023-05-21T03:47:41.858Z,9.71
2023-05-21T03:50:08.607Z,9.51
2023-05-21T03:52:35.159Z,9.48
2023-05-21T03:55:01.725Z,9.10
2023-05-21T03:57:28.247Z,9.54
2023-05-21T03:59:54.762Z,9.45
2023-05-21T04:02:21.407Z,9.34
2023-05-21T04:04:48.182Z,9.50
2023-05-21T04:07:14.888Z,8.99
2023-05-21T04:09:41.480Z,9.35
2023-05-21T04:12:08.021Z,9.41
2023-05-21T04:14:34.561Z,9.57
2023-05-21T04:17:01.115Z,9.44
2023-05-21T04:19:27.820Z,9.27
2023-05-21T04:21:54.392Z,8.88
2023-05-21T04:24:20.822Z,9.05
2023-05-21T04:26:47.324Z,9.31
2023-05-21T04:29:13.886Z,9.37
2023-05-21T04:31:40.440Z,9.41
2023-05-21T04:34:07.064Z,9.22
2023-05-21T04:36:33.651Z,9.07
2023-05-21T04:39:00.170Z,8.95
2023-05-21T04:41:26.693Z,9.38
2023-05-21T04:43:56.072Z,9.00
2023-05-21T04:46:22.619Z,8.75
2023-05-21T04:48:49.260Z,8.96
2023-05-21T04:51:15.823Z,9.21
2023-05-21T04:53:42.431Z,8.84
2023-05-21T04:56:09.020Z,8.77
2023-05-21T04:58:35.627Z,8.78
2023-05-21T05:01:02.227Z,9.38
2023-05-21T05:03:28.960Z,9.07
2023-05-21T05:05:55.578Z,8.97
2023-05-21T05:08:22.098Z,9.15
2023-05-21T05:10:48.682Z,9.30
2023-05-21T05:13:15.264Z,8.66
2023-05-21T05:15:41.780Z,8.95
2023-05-21T05:18:08.359Z,8.46
2023-05-21T05:20:35.021Z,8.65
2023-05-21T05:23:01.544Z,8.77
2023-05-21T05:25:28.073Z,8.19
2023-05-21T05:27:54.530Z,9.00
2023-05-21T05:30:21.099Z,8.93
2023-05-21T05:32:47.736Z,8.94
2023-05-21T05:35:14.306Z,8.94
2023-05-21T05:37:41.266Z,9.05
2023-05-21T05:40:07.889Z,9.39
2023-05-21T05:42:34.438Z,9.40
2023-05-21T05:45:00.957Z,8.90
2023-05-21T05:47:27.529Z,9.18
2023-05-21T05:49:54.065Z,9.01
2023-05-21T05:52:20.655Z,8.65
2023-05-21T05:54:47.304Z,9.06
2023-05-21T05:57:14.007Z,8.73
2023-05-21T05:59:40.555Z,8.90
2023-05-21T06:02:07.149Z,8.76
2023-05-21T06:04:33.730Z,9.09
2023-05-21T06:07:00.198Z,9.23
2023-05-21T06:09:26.653Z,8.88
2023-05-21T06:11:53.124Z,9.20
2023-05-21T06:14:19.581Z,8.97
2023-05-21T06:16:46.145Z,8.30
2023-05-21T06:19:12.820Z,8.46
2023-05-21T06:21:39.355Z,8.77
2023-05-21T06:24:05.923Z,8.52
2023-05-21T06:26:32.508Z,8.98
2023-05-21T06:28:59.129Z,9.01
2023-05-21T06:31:25.653Z,8.63
2023-05-21T06:33:52.344Z,8.63
2023-05-21T06:36:18.953Z,8.71
2023-05-21T06:38:45.447Z,8.31
2023-05-21T06:41:12.038Z,8.56
2023-05-21T06:43:38.723Z,8.27
2023-05-21T06:46:05.290Z,8.31
2023-05-21T06:48:31.858Z,8.48
2023-05-21T06:50:58.351Z,8.51
2023-05-21T06:53:24.851Z,8.22
2023-05-21T06:55:51.444Z,8.54
2023-05-21T06:58:18.040Z,8.41
2023-05-21T07:00:44.539Z,8.26
2023-05-21T07:03:11.183Z,8.56
2023-05-21T07:05:38.048Z,8.53
2023-05-21T07:08:04.969Z,8.26
2023-05-21T07:10:31.574Z,8.00
2023-05-21T07:12:58.079Z,8.31
2023-05-21T07:15:24.595Z,8.39
2023-05-21T07:17:51.276Z,8.16
2023-05-21T07:20:17.884Z,8.38
2023-05-21T07:22:44.495Z,8.10
2023-05-21T07:25:11.077Z,8.76
2023-05-21T07:27:37.722Z,8.12
2023-05-21T07:30:04.251Z,8.27
2023-05-21T07:32:30.774Z,8.19
2023-05-21T07:34:57.375Z,8.46
2023-05-21T07:37:23.909Z,8.28
2023-05-21T07:39:50.533Z,8.08
2023-05-21T07:42:17.145Z,8.39
2023-05-21T07:44:43.611Z,8.71
2023-05-21T07:47:10.122Z,8.72
2023-05-21T07:49:36.667Z,8.29
2023-05-21T07:52:03.401Z,8.41
2023-05-21T07:54:29.932Z,8.44
2023-05-21T07:56:56.567Z,8.39
2023-05-21T07:59:23.094Z,8.35
2023-05-21T08:01:49.710Z,8.66
2023-05-21T08:04:16.470Z,8.58
2023-05-21T08:06:43.076Z,8.39
2023-05-21T08:09:09.703Z,8.34
2023-05-21T08:11:36.178Z,8.43
2023-05-21T08:14:02.778Z,8.55
2023-05-21T08:16:29.338Z,8.15
2023-05-21T08:18:56.024Z,8.35
2023-05-21T08:21:22.693Z,8.54
2023-05-21T08:23:49.273Z,8.81
2023-05-21T08:26:15.832Z,8.26
2023-05-21T08:28:42.416Z,8.41
2023-05-21T08:31:09.009Z,8.25
2023-05-21T08:33:35.611Z,8.10
2023-05-21T08:36:02.181Z,8.10
2023-05-21T08:38:30.251Z,8.55
2023-05-21T08:40:57.100Z,8.31
2023-05-21T08:43:23.618Z,8.40
2023-05-21T08:45:50.180Z,8.11
2023-05-21T08:48:16.732Z,8.39
2023-05-21T08:50:43.188Z,8.28
2023-05-21T08:53:15.818Z,8.09
2023-05-21T08:55:51.665Z,8.22
2023-05-21T08:58:18.280Z,8.27
2023-05-21T09:00:44.856Z,7.85
2023-05-21T09:03:11.580Z,7.94
2023-05-21T09:05:38.352Z,8.26
2023-05-21T09:08:05.047Z,8.32
2023-05-21T09:10:31.561Z,8.13
2023-05-21T09:12:58.080Z,8.05
2023-05-21T09:15:24.554Z,7.73
2023-05-21T09:17:51.095Z,7.89
2023-05-21T09:20:17.595Z,7.97
2023-05-21T09:22:44.146Z,7.47
2023-05-21T09:25:10.673Z,7.83
2023-05-21T09:27:37.161Z,8.16
2023-05-21T09:30:03.738Z,7.93
2023-05-21T09:32:30.241Z,7.63
2023-05-21T09:34:56.816Z,7.91
2023-05-21T09:37:27.445Z,7.82
2023-05-21T09:39:54.359Z,7.93
2023-05-21T09:42:20.936Z,7.92
2023-05-21T09:44:47.405Z,7.53
2023-05-21T09:47:13.944Z,7.61
2023-05-21T09:49:40.484Z,7.54
2023-05-21T09:52:06.954Z,7.85
2023-05-21T09:54:33.443Z,7.98
2023-05-21T09:56:59.892Z,7.73
2023-05-21T09:59:26.416Z,7.71
2023-05-21T10:01:53.109Z,7.62
2023-05-21T10:04:19.906Z,7.69
2023-05-21T10:06:47.612Z,7.61
2023-05-21T10:09:14.088Z,8.16
2023-05-21T10:11:40.592Z,8.05
2023-05-21T10:14:07.144Z,7.69
2023-05-21T10:16:33.721Z,8.25
2023-05-21T10:19:00.400Z,8.04
2023-05-21T10:21:26.962Z,8.16
2023-05-21T10:23:53.499Z,8.17
2023-05-21T10:26:20.089Z,8.53
2023-05-21T10:28:46.657Z,8.71
2023-05-21T10:31:13.155Z,8.54
2023-05-21T10:33:39.738Z,8.57
2023-05-21T10:36:06.301Z,8.46
2023-05-21T10:38:32.927Z,8.80
2023-05-21T10:40:59.480Z,8.77
2023-05-21T10:43:26.003Z,8.55
2023-05-21T10:45:52.495Z,8.70
2023-05-21T10:48:21.983Z,10.25
2023-05-21T10:50:48.481Z,10.77
2023-05-21T10:53:14.990Z,11.74
2023-05-21T10:55:41.608Z,12.69
2023-05-21T10:58:08.341Z,11.80
2023-05-21T11:00:34.948Z,11.97
2023-05-21T11:03:01.637Z,11.36
2023-05-21T11:05:28.232Z,11.26
2023-05-21T11:07:54.748Z,11.10
2023-05-21T11:10:21.255Z,11.16
2023-05-21T11:12:47.789Z,10.91
2023-05-21T11:15:14.332Z,10.81
2023-05-21T11:17:40.896Z,10.44
2023-05-21T11:20:07.489Z,10.64
2023-05-21T11:22:33.957Z,10.31
2023-05-21T11:25:00.515Z,10.45
2023-05-21T11:27:27.059Z,9.97
2023-05-21T11:29:53.620Z,9.94
2023-05-21T11:32:20.204Z,9.96
2023-05-21T11:34:49.892Z,9.85
2023-05-21T11:37:16.445Z,9.78
2023-05-21T11:39:42.941Z,10.11
2023-05-21T11:42:09.407Z,9.90
2023-05-21T11:44:35.947Z,9.52
2023-05-21T11:47:02.458Z,9.74
2023-05-21T11:49:28.985Z,9.30
2023-05-21T11:51:55.529Z,9.72
2023-05-21T11:54:22.000Z,9.42
2023-05-21T11:56:48.480Z,9.21
2023-05-21T11:59:16.685Z,9.48
2023-05-21T12:01:45.067Z,9.38
2023-05-21T12:04:11.629Z,9.40
2023-05-21T12:06:38.201Z,9.02
2023-05-21T12:09:04.669Z,8.91
2023-05-21T12:11:31.147Z,9.09
2023-05-21T12:13:57.715Z,8.94
2023-05-21T12:16:24.311Z,8.85
2023-05-21T12:18:50.942Z,8.97
2023-05-21T12:21:17.477Z,8.86
2023-05-21T12:23:44.114Z,9.55
2023-05-21T12:26:10.752Z,8.70
2023-05-21T12:28:37.376Z,8.76
2023-05-21T12:31:03.964Z,8.75
2023-05-21T12:33:30.543Z,8.79
2023-05-21T12:35:57.208Z,8.64
2023-05-21T12:38:23.707Z,8.33
2023-05-21T12:40:50.224Z,8.58
2023-05-21T12:43:16.828Z,8.29
2023-05-21T12:45:43.445Z,8.44
2023-05-21T12:48:10.177Z,8.42
2023-05-21T12:50:37.001Z,8.65
2023-05-21T12:53:03.562Z,8.21
2023-05-21T12:55:30.119Z,8.24
2023-05-21T12:57:56.702Z,8.47
2023-05-21T13:00:23.207Z,8.42
2023-05-21T13:02:49.761Z,8.31
2023-05-21T13:05:16.570Z,8.36
2023-05-21T13:07:43.495Z,8.39
2023-05-21T13:10:10.093Z,7.98
2023-05-21T13:12:36.779Z,8.06
2023-05-21T13:15:03.356Z,8.19
2023-05-21T13:17:29.863Z,8.18
2023-05-21T13:19:56.418Z,8.24
2023-05-21T13:22:22.925Z,7.91
2023-05-21T13:24:49.459Z,7.76
2023-05-21T13:27:16.019Z,7.35
2023-05-21T13:29:42.606Z,7.71
2023-05-21T13:32:09.109Z,7.93
2023-05-21T13:34:35.643Z,7.23
2023-05-21T13:37:02.117Z,7.47
2023-05-21T13:39:28.687Z,7.48
2023-05-21T13:41:55.204Z,7.43
2023-05-21T13:44:21.721Z,8.04
2023-05-21T13:46:48.326Z,7.45
2023-05-21T13:49:14.920Z,7.58
2023-05-21T13:51:41.499Z,7.63
2023-05-21T13:54:08.081Z,7.77
2023-05-21T13:56:34.592Z,7.90
2023-05-21T13:59:01.061Z,7.88
2023-05-21T14:01:27.695Z,8.02
2023-05-21T14:03:54.303Z,7.91
2023-05-21T14:06:23.645Z,7.40
2023-05-21T14:08:50.133Z,7.93
2023-05-21T14:11:16.639Z,7.69
2023-05-21T14:13:43.194Z,7.33
2023-05-21T14:16:09.663Z,7.24
2023-05-21T14:18:36.405Z,7.42
2023-05-21T14:21:02.972Z,7.65
2023-05-21T14:23:29.540Z,7.42
2023-05-21T14:25:56.140Z,7.42
2023-05-21T14:28:22.650Z,7.28
2023-05-21T14:30:49.142Z,7.26
2023-05-21T14:33:15.771Z,7.30
2023-05-21T14:35:42.367Z,7.20
2023-05-21T14:38:08.919Z,7.25
2023-05-21T14:40:35.524Z,7.33
2023-05-21T14:43:02.113Z,7.05
2023-05-21T14:45:28.657Z,6.84
2023-05-21T14:47:55.235Z,7.37
2023-05-21T14:50:21.915Z,7.39
2023-05-21T14:52:48.425Z,7.19
2023-05-21T14:55:14.891Z,7.13
2023-05-21T14:57:41.357Z,7.06
2023-05-21T15:00:07.871Z,7.01
2023-05-21T15:02:34.423Z,7.38
2023-05-21T15:05:01.156Z,6.95
2023-05-21T15:07:27.701Z,6.95
2023-05-21T15:09:54.187Z,6.89
2023-05-21T15:12:20.716Z,7.03
2023-05-21T15:14:47.222Z,7.06
2023-05-21T15:17:13.765Z,7.01
2023-05-21T15:19:42.682Z,7.09
2023-05-21T15:22:09.283Z,7.15
2023-05-21T15:24:35.795Z,6.85
2023-05-21T15:27:02.262Z,7.09
2023-05-21T15:29:28.782Z,6.99
2023-05-21T15:31:55.306Z,6.77
2023-05-21T15:34:21.907Z,7.19
2023-05-21T15:36:48.508Z,7.20
2023-05-21T15:39:15.064Z,7.22
2023-05-21T15:41:41.644Z,11.41
2023-05-21T15:44:08.115Z,21.09
2023-05-21T15:46:34.746Z,21.18
2023-05-21T15:49:01.288Z,22.29
2023-05-21T15:51:27.849Z,22.12
2023-05-21T15:53:55.792Z,19.78
2023-05-21T15:56:22.380Z,20.02
2023-05-21T15:58:48.953Z,19.77
2023-05-21T16:01:15.502Z,19.32
2023-05-21T16:03:42.161Z,18.60
2023-05-21T16:06:08.770Z,17.58
2023-05-21T16:08:35.374Z,16.91
2023-05-21T16:11:01.879Z,17.18
2023-05-21T16:13:28.466Z,16.59
2023-05-21T16:15:55.131Z,16.94
2023-05-21T16:18:21.623Z,16.15
2023-05-21T16:20:48.143Z,16.34
2023-05-21T16:23:14.644Z,16.07
2023-05-21T16:25:41.105Z,16.21
2023-05-21T16:28:07.639Z,15.71
2023-05-21T16:30:34.181Z,15.24
2023-05-21T16:33:00.752Z,14.48
2023-05-21T16:35:27.349Z,14.55
2023-05-21T16:37:53.884Z,13.91
2023-05-21T16:40:20.429Z,13.94
2023-05-21T16:42:46.949Z,13.77
2023-05-21T16:45:13.626Z,13.61
2023-05-21T16:47:40.193Z,14.06
2023-05-21T16:50:09.609Z,13.69
2023-05-21T16:52:36.198Z,13.89
2023-05-21T16:55:02.719Z,13.54
2023-05-21T16:57:29.272Z,13.35
2023-05-21T16:59:55.889Z,13.68
2023-05-21T17:02:22.568Z,13.62
2023-05-21T17:04:49.126Z,13.58
2023-05-21T17:07:15.835Z,14.14
2023-05-21T17:09:42.390Z,13.93
2023-05-21T17:12:08.893Z,13.41
2023-05-21T17:14:36.651Z,12.88
2023-05-21T17:17:04.272Z,13.30
2023-05-21T17:19:30.990Z,12.58
2023-05-21T17:21:57.565Z,13.17
2023-05-21T17:24:24.116Z,12.92
2023-05-21T17:26:50.618Z,13.12
2023-05-21T17:29:17.091Z,12.78
2023-05-21T17:31:43.659Z,12.32
2023-05-21T17:34:10.263Z,13.04
2023-05-21T17:36:36.778Z,12.45
2023-05-21T17:39:03.324Z,12.86
2023-05-21T17:41:29.788Z,12.75
2023-05-21T17:43:56.276Z,12.31
2023-05-21T17:46:22.863Z,12.33
2023-05-21T17:48:49.364Z,12.36
2023-05-21T17:51:15.947Z,12.10
2023-05-21T17:53:42.436Z,12.27
2023-05-21T17:56:08.980Z,12.02
2023-05-21T17:58:35.476Z,12.16
2023-05-21T18:01:02.009Z,12.16
2023-05-21T18:03:28.597Z,12.50
2023-05-21T18:05:55.148Z,12.03
2023-05-21T18:08:23.823Z,11.86
2023-05-21T18:10:50.376Z,11.80
2023-05-21T18:13:16.985Z,11.78
2023-05-21T18:15:43.608Z,11.47
2023-05-21T18:18:10.240Z,11.56
2023-05-21T18:20:37.074Z,11.35
2023-05-21T18:23:03.831Z,11.49
2023-05-21T18:25:30.368Z,11.35
2023-05-21T18:27:56.938Z,11.24
2023-05-21T18:30:23.542Z,11.22
2023-05-21T18:32:50.178Z,11.44
2023-05-21T18:35:16.985Z,11.05
2023-05-21T18:37:43.666Z,11.27
2023-05-21T18:40:10.226Z,10.95
2023-05-21T18:42:37.985Z,10.96
2023-05-21T18:45:04.597Z,10.73
2023-05-21T18:47:31.128Z,10.24
2023-05-21T18:49:57.765Z,10.71
2023-05-21T18:52:24.405Z,10.75
2023-05-21T18:54:50.970Z,10.52
2023-05-21T18:57:17.477Z,10.82
2023-05-21T18:59:44.004Z,10.56
2023-05-21T19:02:10.800Z,10.66
2023-05-21T19:04:37.544Z,10.81
2023-05-21T19:07:04.191Z,10.90
2023-05-21T19:09:30.858Z,10.59
2023-05-21T19:11:57.465Z,10.78
2023-05-21T19:14:24.075Z,10.37
2023-05-21T19:16:50.649Z,10.35
2023-05-21T19:19:17.241Z,10.28
2023-05-21T19:21:43.842Z,10.28
2023-05-21T19:24:10.409Z,9.91
2023-05-21T19:26:37.003Z,9.98
2023-05-21T19:29:03.492Z,10.16
2023-05-21T19:31:30.081Z,9.94
2023-05-21T19:33:56.730Z,9.57
2023-05-21T19:36:23.388Z,9.61
2023-05-21T19:38:50.087Z,9.55
2023-05-21T19:41:16.761Z,9.99
2023-05-21T19:43:43.233Z,9.20
2023-05-21T19:46:09.866Z,9.79
2023-05-21T19:48:36.489Z,10.13
2023-05-21T19:51:02.994Z,9.68
2023-05-21T19:53:29.562Z,9.58
2023-05-21T19:55:56.054Z,9.71
2023-05-21T19:58:22.618Z,10.01
2023-05-21T20:00:49.197Z,9.52
2023-05-21T20:03:15.815Z,9.61
2023-05-21T20:05:42.452Z,9.71
2023-05-21T20:08:08.931Z,9.36
2023-05-21T20:10:35.397Z,9.67
2023-05-21T20:13:02.004Z,9.36
2023-05-21T20:15:28.548Z,9.99
2023-05-21T20:17:55.026Z,9.53
2023-05-21T20:20:21.586Z,9.34
2023-05-21T20:22:48.151Z,9.72
2023-05-21T20:25:14.665Z,9.29
2023-05-21T20:27:41.139Z,9.27
2023-05-21T20:30:07.750Z,9.02
2023-05-21T20:32:34.319Z,9.41
2023-05-21T20:35:03.419Z,9.77
2023-05-21T20:37:30.168Z,9.13
2023-05-21T20:39:56.743Z,9.53
2023-05-21T20:42:23.342Z,9.08
2023-05-21T20:44:49.809Z,9.35
2023-05-21T20:47:16.339Z,9.42
2023-05-21T20:49:42.902Z,9.42
2023-05-21T20:52:09.396Z,9.55
2023-05-21T20:54:35.900Z,9.39
2023-05-21T20:57:02.510Z,9.20
2023-05-21T20:59:29.023Z,9.43
2023-05-21T21:01:55.581Z,8.95
2023-05-21T21:04:22.342Z,9.04
2023-05-21T21:06:48.974Z,9.17
2023-05-21T21:09:15.526Z,9.19
2023-05-21T21:11:42.006Z,9.08
2023-05-21T21:14:08.554Z,8.97
2023-05-21T21:16:35.207Z,9.00
2023-05-21T21:19:01.857Z,8.86
2023-05-21T21:21:28.448Z,8.79
2023-05-21T21:23:54.992Z,8.52
2023-05-21T21:26:21.496Z,9.06
2023-05-21T21:28:47.958Z,9.19
2023-05-21T21:31:14.542Z,8.38
2023-05-21T21:33:41.106Z,8.68
2023-05-21T21:36:07.727Z,8.87
2023-05-21T21:38:34.294Z,8.75
2023-05-21T21:41:00.944Z,8.61
2023-05-21T21:43:27.547Z,8.76
2023-05-21T21:45:54.154Z,9.05
2023-05-21T21:48:20.779Z,8.75
2023-05-21T21:50:47.284Z,8.81
2023-05-21T21:53:13.828Z,8.69
2023-05-21T21:55:40.357Z,8.74
2023-05-21T21:58:07.025Z,8.45
2023-05-21T22:00:33.676Z,8.27
2023-05-21T22:03:00.399Z,8.42
2023-05-21T22:05:27.052Z,8.35
2023-05-21T22:07:53.650Z,8.44
2023-05-21T22:10:20.231Z,8.34
2023-05-21T22:12:46.784Z,8.35
2023-05-21T22:15:13.412Z,8.49
2023-05-21T22:17:40.093Z,8.46
2023-05-21T22:20:06.687Z,8.28
2023-05-21T22:22:33.348Z,8.03
2023-05-21T22:24:59.900Z,8.26
2023-05-21T22:27:26.497Z,8.49
2023-05-21T22:29:53.075Z,8.37
2023-05-21T22:32:19.726Z,8.23
2023-05-21T22:34:46.327Z,8.69
2023-05-21T22:37:12.920Z,7.96
2023-05-21T22:39:39.530Z,8.44
2023-05-21T22:42:06.089Z,8.32
2023-05-21T22:44:32.680Z,8.29
2023-05-21T22:46:59.320Z,8.19
2023-05-21T22:49:25.927Z,8.42
2023-05-21T22:51:52.526Z,7.71
2023-05-21T22:54:19.053Z,8.14
2023-05-21T22:56:45.660Z,8.23
2023-05-21T22:59:12.186Z,8.20
2023-05-21T23:01:38.783Z,8.12
2023-05-21T23:04:05.284Z,7.97
2023-05-21T23:06:31.862Z,7.77
2023-05-21T23:08:58.445Z,7.77
2023-05-21T23:11:25.084Z,7.96
2023-05-21T23:13:51.627Z,7.92
2023-05-21T23:16:18.276Z,7.79
2023-05-21T23:18:44.871Z,7.93
2023-05-21T23:21:11.466Z,7.71
2023-05-21T23:23:37.997Z,7.87
2023-05-21T23:26:04.464Z,8.42
2023-05-21T23:28:30.993Z,7.63
2023-05-21T23:30:57.643Z,7.67
2023-05-21T23:33:24.225Z,7.52
2023-05-21T23:35:50.798Z,7.97
2023-05-21T23:38:17.320Z,8.05
2023-05-21T23:40:43.877Z,7.45
2023-05-21T23:43:10.441Z,7.45
2023-05-21T23:45:37.112Z,7.69
2023-05-21T23:48:03.840Z,7.33
2023-05-21T23:50:30.450Z,7.50
2023-05-21T23:52:57.032Z,7.83
2023-05-21T23:55:23.614Z,7.63
2023-05-21T23:57:50.189Z,7.21
